createdAt,value
2023-02-24T00:00:38.669Z,5.20
2023-02-24T00:03:27.531Z,5.20
2023-02-24T00:06:16.384Z,5.30
2023-02-24T00:09:08.605Z,5.30
2023-02-24T00:11:59.284Z,5.30
2023-02-24T00:14:48.091Z,5.30
2023-02-24T00:17:38.776Z,5.40
2023-02-24T00:20:27.496Z,5.40
2023-02-24T00:23:18.435Z,5.40
2023-02-24T00:26:08.214Z,5.50
2023-02-24T00:28:57.098Z,5.40
2023-02-24T00:31:47.375Z,5.40
2023-02-24T00:34:38.269Z,5.50
2023-02-24T00:37:27.048Z,5.30
2023-02-24T00:40:16.390Z,5.40
2023-02-24T00:43:05.673Z,5.40
2023-02-24T00:45:54.506Z,5.50
2023-02-24T00:48:45.906Z,5.40
2023-02-24T00:51:39.604Z,5.50
2023-02-24T00:54:28.472Z,5.60
2023-02-24T00:57:20.642Z,5.50
2023-02-24T01:00:19.960Z,5.50
2023-02-24T01:03:08.698Z,5.50
2023-02-24T01:05:58.009Z,5.60
2023-02-24T01:08:50.204Z,5.60
2023-02-24T01:12:02.692Z,5.60
2023-02-24T01:14:53.916Z,5.60
2023-02-24T01:17:42.651Z,5.60
2023-02-24T01:20:33.214Z,5.70
2023-02-24T01:23:21.910Z,5.70
2023-02-24T01:26:12.099Z,5.70
2023-02-24T01:29:02.466Z,5.70
2023-02-24T01:31:53.068Z,5.60
2023-02-24T01:34:42.672Z,5.70
2023-02-24T01:37:31.370Z,5.70
2023-02-24T01:40:21.903Z,5.80
2023-02-24T01:43:16.106Z,5.70
2023-02-24T01:46:05.330Z,5.70
2023-02-24T01:48:58.740Z,5.70
2023-02-24T01:51:52.103Z,5.70
2023-02-24T01:54:43.777Z,5.80
2023-02-24T01:57:37.089Z,5.80
2023-02-24T02:00:47.093Z,5.90
2023-02-24T02:03:37.632Z,5.80
2023-02-24T02:06:26.760Z,5.80
2023-02-24T02:09:16.662Z,5.80
2023-02-24T02:12:06.048Z,5.80
2023-02-24T02:14:59.614Z,5.80
2023-02-24T02:18:02.837Z,5.80
2023-02-24T02:21:20.000Z,5.80
2023-02-24T02:24:38.086Z,5.80
2023-02-24T02:27:58.184Z,5.90
2023-02-24T02:31:20.383Z,5.90
2023-02-24T02:34:24.736Z,6.00
2023-02-24T02:37:20.061Z,5.90
2023-02-24T02:40:19.786Z,6.00
2023-02-24T02:43:17.368Z,6.00
2023-02-24T02:46:10.735Z,6.00
2023-02-24T02:49:03.616Z,6.10
2023-02-24T02:51:57.991Z,6.10
2023-02-24T02:54:53.796Z,6.10
2023-02-24T02:57:51.886Z,6.20
2023-02-24T03:00:50.302Z,6.20
2023-02-24T03:03:45.267Z,6.30
2023-02-24T03:06:36.220Z,6.30
2023-02-24T03:09:30.003Z,6.30
2023-02-24T03:12:22.686Z,6.30
2023-02-24T03:15:14.213Z,6.30
2023-02-24T03:18:11.296Z,6.40
2023-02-24T03:21:07.961Z,6.30
2023-02-24T03:23:57.075Z,6.30
2023-02-24T03:26:52.373Z,6.30
2023-02-24T03:29:48.877Z,6.30
2023-02-24T03:32:44.111Z,6.30
2023-02-24T03:35:35.416Z,6.30
2023-02-24T03:38:25.089Z,6.40
2023-02-24T03:41:14.591Z,6.30
2023-02-24T03:44:04.679Z,6.30
2023-02-24T03:46:55.865Z,6.40
2023-02-24T03:49:45.461Z,6.40
2023-02-24T03:52:47.128Z,6.40
2023-02-24T03:55:47.736Z,6.40
2023-02-24T03:58:47.368Z,6.40
2023-02-24T04:01:50.100Z,6.40
2023-02-24T04:04:43.483Z,6.40
2023-02-24T04:08:04.145Z,6.40
2023-02-24T04:10:58.297Z,6.40
2023-02-24T04:13:54.938Z,6.40
2023-02-24T04:16:57.449Z,6.40
2023-02-24T04:19:48.513Z,6.50
2023-02-24T04:22:41.272Z,6.40
2023-02-24T04:25:32.050Z,6.40
2023-02-24T04:28:23.470Z,6.40
2023-02-24T04:31:17.676Z,6.40
2023-02-24T04:34:09.601Z,6.40
2023-02-24T04:37:02.415Z,6.40
2023-02-24T04:39:55.201Z,6.40
2023-02-24T04:42:50.867Z,6.40
2023-02-24T04:45:40.627Z,6.50
2023-02-24T04:48:30.346Z,6.50
2023-02-24T04:51:21.184Z,6.50
2023-02-24T04:54:10.378Z,6.50
2023-02-24T04:56:59.586Z,6.50
2023-02-24T04:59:48.422Z,6.50
2023-02-24T05:02:38.454Z,6.50
2023-02-24T05:05:27.923Z,6.50
2023-02-24T05:08:17.925Z,6.50
2023-02-24T05:11:07.222Z,6.50
2023-02-24T05:13:57.177Z,6.60
2023-02-24T05:16:47.240Z,6.60
2023-02-24T05:19:53.591Z,6.60
2023-02-24T05:22:42.176Z,6.70
2023-02-24T05:25:37.727Z,6.70
2023-02-24T05:28:26.860Z,6.70
2023-02-24T05:31:21.445Z,6.70
2023-02-24T05:34:10.351Z,6.80
2023-02-24T05:37:01.912Z,6.70
2023-02-24T05:39:53.007Z,6.80
2023-02-24T05:42:45.427Z,6.80
2023-02-24T05:45:35.144Z,6.90
2023-02-24T05:48:25.063Z,6.80
2023-02-24T05:51:13.734Z,6.90
2023-02-24T05:54:05.523Z,6.90
2023-02-24T05:56:57.110Z,7.00
2023-02-24T05:59:51.588Z,7.00
2023-02-24T06:02:43.315Z,7.10
2023-02-24T06:05:33.435Z,7.10
2023-02-24T06:08:24.461Z,7.10
2023-02-24T06:11:13.941Z,7.20
2023-02-24T06:14:03.220Z,7.30
2023-02-24T06:16:53.393Z,7.30
2023-02-24T06:19:46.232Z,7.30
2023-02-24T06:22:42.413Z,7.40
2023-02-24T06:25:35.202Z,7.40
2023-02-24T06:28:23.935Z,7.50
2023-02-24T06:31:15.211Z,7.40
2023-02-24T06:34:05.325Z,7.40
2023-02-24T06:36:54.081Z,7.50
2023-02-24T06:39:43.595Z,7.50
2023-02-24T06:42:32.416Z,7.60
2023-02-24T06:45:22.285Z,7.60
2023-02-24T06:48:12.119Z,7.60
2023-02-24T06:51:05.993Z,7.60
2023-02-24T06:53:56.045Z,7.70
2023-02-24T06:56:44.761Z,7.70
2023-02-24T06:59:34.439Z,7.70
2023-02-24T07:02:26.748Z,7.70
2023-02-24T07:05:17.107Z,7.80
2023-02-24T07:08:08.645Z,7.80
2023-02-24T07:10:59.989Z,7.90
2023-02-24T07:13:51.765Z,7.80
2023-02-24T07:16:45.831Z,7.80
2023-02-24T07:19:34.618Z,7.80
2023-02-24T07:22:25.360Z,7.80
2023-02-24T07:25:30.904Z,7.80
2023-02-24T07:28:19.524Z,7.90
2023-02-24T07:31:09.603Z,8.00
2023-02-24T07:34:01.226Z,8.00
2023-02-24T07:36:51.172Z,7.90
2023-02-24T07:39:40.842Z,7.90
2023-02-24T07:42:35.433Z,7.90
2023-02-24T07:45:27.462Z,8.00
2023-02-24T07:48:16.311Z,8.10
2023-02-24T07:51:08.920Z,8.10
2023-02-24T07:54:00.001Z,8.10
2023-02-24T07:56:56.588Z,8.20
2023-02-24T07:59:48.084Z,8.20
2023-02-24T08:02:38.920Z,8.30
2023-02-24T08:05:27.762Z,8.30
2023-02-24T08:08:21.124Z,8.20
2023-02-24T08:11:10.604Z,8.30
2023-02-24T08:13:59.514Z,8.30
2023-02-24T08:16:52.499Z,8.30
2023-02-24T08:19:41.319Z,8.30
2023-02-24T08:22:37.463Z,8.30
2023-02-24T08:25:36.114Z,8.30
2023-02-24T08:28:27.038Z,8.30
2023-02-24T08:31:18.790Z,8.40
2023-02-24T08:34:09.073Z,8.40
2023-02-24T08:36:57.936Z,8.40
2023-02-24T08:39:46.767Z,8.40
2023-02-24T08:42:35.704Z,8.40
2023-02-24T08:45:24.652Z,8.40
2023-02-24T08:48:26.405Z,8.50
2023-02-24T08:51:22.971Z,8.50
2023-02-24T08:54:16.432Z,8.50
2023-02-24T08:57:09.186Z,8.50
2023-02-24T08:59:58.861Z,8.50
2023-02-24T09:02:48.402Z,8.50
2023-02-24T09:05:39.402Z,8.50
2023-02-24T09:08:32.820Z,8.50
2023-02-24T09:11:23.000Z,8.60
2023-02-24T09:14:32.197Z,8.50
2023-02-24T09:17:30.799Z,8.60
2023-02-24T09:20:56.645Z,8.60
2023-02-24T09:23:47.131Z,8.60
2023-02-24T09:26:43.371Z,8.60
2023-02-24T09:29:34.717Z,8.60
2023-02-24T09:32:23.481Z,8.70
2023-02-24T09:35:15.061Z,8.60
2023-02-24T09:38:06.356Z,8.60
2023-02-24T09:41:29.157Z,8.60
2023-02-24T09:44:18.786Z,8.70
2023-02-24T09:47:20.118Z,8.80
2023-02-24T09:50:47.318Z,8.80
2023-02-24T09:53:41.270Z,8.70
2023-02-24T09:56:42.663Z,8.80
2023-02-24T09:59:37.556Z,8.80
2023-02-24T10:02:44.477Z,8.80
2023-02-24T10:05:38.755Z,8.70
2023-02-24T10:08:34.439Z,8.70
2023-02-24T10:11:33.005Z,8.70
2023-02-24T10:14:37.910Z,8.70
2023-02-24T10:17:40.390Z,8.70
2023-02-24T10:20:40.503Z,8.80
2023-02-24T10:23:39.118Z,8.80
2023-02-24T10:26:51.360Z,8.80
2023-02-24T10:30:05.774Z,8.80
2023-02-24T10:32:59.162Z,8.80
2023-02-24T10:36:17.362Z,8.70
2023-02-24T10:39:17.132Z,8.50
2023-02-24T10:42:20.185Z,8.60
2023-02-24T10:45:18.289Z,8.60
2023-02-24T10:48:11.550Z,8.50
2023-02-24T10:51:13.176Z,8.50
2023-02-24T10:54:34.281Z,8.50
2023-02-24T10:57:39.496Z,8.40
2023-02-24T11:00:52.414Z,8.40
2023-02-24T11:03:48.081Z,8.40
2023-02-24T11:06:57.972Z,8.50
2023-02-24T11:09:52.653Z,8.60
2023-02-24T11:13:10.002Z,8.50
2023-02-24T11:16:19.370Z,8.40
2023-02-24T11:19:09.010Z,8.50
2023-02-24T11:21:58.602Z,8.50
2023-02-24T11:24:48.427Z,8.50
2023-02-24T11:27:37.425Z,8.60
2023-02-24T11:30:37.011Z,8.60
2023-02-24T11:33:35.547Z,8.60
2023-02-24T11:36:34.776Z,8.70
2023-02-24T11:39:43.721Z,8.70
2023-02-24T11:42:38.725Z,8.80
2023-02-24T11:45:33.539Z,8.80
2023-02-24T11:48:27.532Z,8.70
2023-02-24T11:51:21.317Z,8.70
2023-02-24T11:54:14.236Z,8.70
2023-02-24T11:57:04.893Z,8.60
2023-02-24T12:00:04.509Z,8.70
2023-02-24T12:03:04.156Z,8.80
2023-02-24T12:05:58.419Z,9.00
2023-02-24T12:08:55.140Z,9.20
2023-02-24T12:11:53.626Z,9.20
2023-02-24T12:14:48.863Z,9.20
2023-02-24T12:17:47.260Z,9.30
2023-02-24T12:20:41.630Z,9.30
2023-02-24T12:23:34.204Z,9.40
2023-02-24T12:26:28.155Z,9.50
2023-02-24T12:29:42.402Z,9.40
2023-02-24T12:32:43.051Z,9.30
2023-02-24T12:35:40.789Z,9.20
2023-02-24T12:38:43.454Z,9.10
2023-02-24T12:41:46.779Z,9.10
2023-02-24T12:44:45.710Z,9.20
2023-02-24T12:47:43.638Z,9.40
2023-02-24T12:50:43.515Z,9.40
2023-02-24T12:53:39.716Z,9.40
2023-02-24T12:56:37.248Z,9.30
2023-02-24T12:59:32.634Z,9.40
2023-02-24T13:02:31.739Z,9.40
2023-02-24T13:05:25.755Z,9.30
2023-02-24T13:08:26.724Z,9.40
2023-02-24T13:11:22.854Z,9.40
2023-02-24T13:14:21.229Z,9.30
2023-02-24T13:17:23.670Z,9.20
2023-02-24T13:20:15.198Z,9.20
2023-02-24T13:23:05.834Z,9.10
2023-02-24T13:25:56.633Z,9.20
2023-02-24T13:28:45.470Z,9.20
2023-02-24T13:31:46.168Z,9.20
2023-02-24T13:34:45.420Z,9.20
2023-02-24T13:37:37.697Z,9.30
2023-02-24T13:40:28.318Z,9.30
2023-02-24T13:43:25.071Z,9.40
2023-02-24T13:46:20.130Z,9.30
2023-02-24T13:49:27.247Z,9.30
2023-02-24T13:52:39.464Z,9.40
2023-02-24T13:55:46.858Z,9.50
2023-02-24T13:58:50.752Z,9.50
2023-02-24T14:01:49.895Z,9.40
2023-02-24T14:04:46.002Z,9.30
2023-02-24T14:07:39.461Z,9.30
2023-02-24T14:10:33.290Z,9.20
2023-02-24T14:13:28.076Z,9.20
2023-02-24T14:16:21.512Z,9.20
2023-02-24T14:19:17.233Z,9.30
2023-02-24T14:22:05.918Z,9.30
2023-02-24T14:25:04.283Z,9.40
2023-02-24T14:27:56.043Z,9.30
2023-02-24T14:30:44.994Z,9.40
2023-02-24T14:33:36.499Z,9.40
2023-02-24T14:36:28.462Z,9.30
2023-02-24T14:39:20.347Z,9.20
2023-02-24T14:42:15.939Z,9.20
2023-02-24T14:45:18.546Z,9.30
2023-02-24T14:48:07.714Z,9.10
2023-02-24T14:51:00.787Z,9.00
2023-02-24T14:53:53.755Z,9.10
2023-02-24T14:56:42.505Z,9.10
2023-02-24T14:59:36.886Z,9.10
2023-02-24T15:02:29.869Z,9.10
2023-02-24T15:05:18.877Z,9.00
2023-02-24T15:08:21.875Z,9.10
2023-02-24T15:11:22.017Z,9.10
2023-02-24T15:14:21.987Z,9.20
2023-02-24T15:17:17.647Z,9.20
2023-02-24T15:20:27.698Z,9.10
2023-02-24T15:23:27.639Z,9.00
2023-02-24T15:26:31.056Z,8.90
2023-02-24T15:29:25.211Z,8.90
2023-02-24T15:32:19.684Z,8.90
2023-02-24T15:35:22.521Z,8.90
2023-02-24T15:38:25.683Z,8.90
2023-02-24T15:41:15.530Z,8.90
2023-02-24T15:44:04.358Z,8.90
2023-02-24T15:46:53.406Z,8.90
2023-02-24T15:49:43.513Z,8.80
2023-02-24T15:52:32.499Z,8.90
2023-02-24T15:55:23.192Z,8.90
2023-02-24T15:58:17.398Z,8.80
2023-02-24T16:01:06.593Z,8.80
2023-02-24T16:03:55.446Z,8.80
2023-02-24T16:06:54.747Z,8.80
2023-02-24T16:09:45.542Z,8.70
2023-02-24T16:12:37.321Z,8.80
2023-02-24T16:15:29.376Z,8.80
2023-02-24T16:18:22.496Z,8.70
2023-02-24T16:21:11.511Z,8.70
2023-02-24T16:24:02.004Z,8.70
2023-02-24T16:26:51.109Z,8.50
2023-02-24T16:29:39.978Z,8.40
2023-02-24T16:32:28.961Z,8.10
2023-02-24T16:35:18.468Z,8.10
2023-02-24T16:38:07.408Z,8.00
2023-02-24T16:40:57.708Z,8.10
2023-02-24T16:43:46.550Z,8.00
2023-02-24T16:46:41.279Z,7.90
2023-02-24T16:49:30.180Z,7.90
2023-02-24T16:52:20.801Z,7.90
2023-02-24T16:55:13.866Z,7.90
2023-02-24T16:58:04.084Z,7.90
2023-02-24T17:00:56.342Z,7.80
2023-02-24T17:03:47.130Z,7.80
2023-02-24T17:06:35.925Z,7.90
2023-02-24T17:09:25.977Z,7.80
2023-02-24T17:12:16.718Z,7.70
2023-02-24T17:15:09.564Z,7.70
2023-02-24T17:17:58.384Z,7.60
2023-02-24T17:20:47.065Z,7.70
2023-02-24T17:23:35.937Z,7.70
2023-02-24T17:26:24.898Z,7.60
2023-02-24T17:29:14.822Z,7.60
2023-02-24T17:32:05.309Z,7.60
2023-02-24T17:34:54.088Z,7.60
2023-02-24T17:37:42.979Z,7.30
2023-02-24T17:40:32.151Z,7.30
2023-02-24T17:43:21.013Z,7.20
2023-02-24T17:46:10.053Z,7.20
2023-02-24T17:49:00.421Z,7.10
2023-02-24T17:51:51.485Z,7.20
2023-02-24T17:54:40.349Z,7.20
2023-02-24T17:57:29.840Z,7.30
2023-02-24T18:00:19.405Z,7.20
2023-02-24T18:03:08.449Z,7.20
2023-02-24T18:06:03.449Z,7.30
2023-02-24T18:08:52.970Z,7.30
2023-02-24T18:11:41.770Z,7.30
2023-02-24T18:14:30.723Z,7.20
2023-02-24T18:17:19.776Z,7.30
2023-02-24T18:20:10.131Z,7.30
2023-02-24T18:23:00.259Z,7.40
2023-02-24T18:25:49.180Z,7.30
2023-02-24T18:28:38.711Z,7.30
2023-02-24T18:31:29.002Z,7.30
2023-02-24T18:34:17.997Z,7.20
2023-02-24T18:37:06.811Z,7.30
2023-02-24T18:39:56.994Z,7.20
2023-02-24T18:42:45.871Z,7.30
2023-02-24T18:45:34.644Z,7.30
2023-02-24T18:48:23.382Z,7.20
2023-02-24T18:51:12.620Z,7.20
2023-02-24T18:54:01.869Z,7.20
2023-02-24T18:56:52.519Z,7.10
2023-02-24T18:59:41.247Z,7.20
2023-02-24T19:02:30.233Z,7.20
2023-02-24T19:05:20.492Z,7.10
2023-02-24T19:08:09.232Z,7.10
2023-02-24T19:10:57.853Z,7.00
2023-02-24T19:13:48.844Z,7.10
2023-02-24T19:16:38.821Z,6.90
2023-02-24T19:19:27.630Z,6.80
2023-02-24T19:22:16.373Z,6.90
2023-02-24T19:25:05.600Z,6.80
2023-02-24T19:27:54.868Z,6.80
2023-02-24T19:30:44.940Z,6.80
2023-02-24T19:33:33.914Z,6.90
2023-02-24T19:36:23.542Z,6.80
2023-02-24T19:39:15.798Z,6.60
2023-02-24T19:42:06.580Z,6.50
2023-02-24T19:44:55.501Z,6.40
2023-02-24T19:47:47.039Z,6.30
2023-02-24T19:50:35.761Z,6.30
2023-02-24T19:53:24.500Z,6.40
2023-02-24T19:56:13.380Z,6.40
2023-02-24T19:59:03.712Z,6.40
2023-02-24T20:01:54.553Z,6.30
2023-02-24T20:04:44.918Z,6.30
2023-02-24T20:07:34.914Z,6.30
2023-02-24T20:10:23.774Z,6.30
2023-02-24T20:13:12.634Z,6.30
2023-02-24T20:16:09.833Z,6.20
2023-02-24T20:18:58.536Z,6.20
2023-02-24T20:21:48.806Z,6.20
2023-02-24T20:24:37.979Z,6.30
2023-02-24T20:27:26.819Z,6.30
2023-02-24T20:30:16.093Z,6.20
2023-02-24T20:33:05.019Z,6.20
2023-02-24T20:35:55.084Z,6.20
2023-02-24T20:38:45.485Z,6.30
2023-02-24T20:41:34.585Z,6.20
2023-02-24T20:44:23.343Z,6.30
2023-02-24T20:47:12.129Z,6.30
2023-02-24T20:50:01.075Z,6.40
2023-02-24T20:52:49.716Z,6.40
2023-02-24T20:55:39.951Z,6.40
2023-02-24T20:58:28.631Z,6.40
2023-02-24T21:01:18.850Z,6.50
2023-02-24T21:04:09.558Z,6.50
2023-02-24T21:06:58.328Z,6.40
2023-02-24T21:09:47.357Z,6.40
2023-02-24T21:12:37.776Z,6.40
2023-02-24T21:15:26.709Z,6.30
2023-02-24T21:18:15.742Z,6.30
2023-02-24T21:21:04.565Z,6.20
2023-02-24T21:23:53.830Z,6.20
2023-02-24T21:26:42.631Z,6.40
2023-02-24T21:29:33.033Z,6.40
2023-02-24T21:32:22.115Z,6.50
2023-02-24T21:35:11.118Z,6.50
2023-02-24T21:37:59.912Z,6.60
2023-02-24T21:40:49.164Z,6.60
2023-02-24T21:43:39.230Z,6.50
2023-02-24T21:46:29.431Z,6.50
2023-02-24T21:49:18.392Z,6.50
2023-02-24T21:52:07.594Z,6.50
2023-02-24T21:54:58.018Z,6.50
2023-02-24T21:57:48.015Z,6.40
2023-02-24T22:00:36.706Z,6.50
2023-02-24T22:03:27.337Z,6.40
2023-02-24T22:06:17.961Z,6.50
2023-02-24T22:09:08.883Z,6.50
2023-02-24T22:11:58.101Z,6.60
2023-02-24T22:14:46.782Z,6.60
2023-02-24T22:17:36.236Z,6.60
2023-02-24T22:20:26.685Z,6.60
2023-02-24T22:23:15.512Z,6.60
2023-02-24T22:26:06.075Z,6.60
2023-02-24T22:28:55.375Z,6.50
2023-02-24T22:31:48.326Z,6.50
2023-02-24T22:34:38.149Z,6.40
2023-02-24T22:37:28.334Z,6.50
2023-02-24T22:40:19.295Z,6.50
2023-02-24T22:43:09.231Z,6.50
2023-02-24T22:45:59.702Z,6.50
2023-02-24T22:48:50.395Z,6.40
2023-02-24T22:51:39.247Z,6.50
2023-02-24T22:54:29.301Z,6.40
2023-02-24T22:57:18.116Z,6.40
2023-02-24T23:00:10.578Z,6.20
2023-02-24T23:02:59.267Z,6.30
2023-02-24T23:05:56.157Z,6.30
2023-02-24T23:08:46.998Z,6.20
2023-02-24T23:11:40.967Z,6.40
2023-02-24T23:14:30.614Z,6.40
2023-02-24T23:17:19.379Z,6.30
2023-02-24T23:20:12.866Z,6.40
2023-02-24T23:23:02.528Z,6.30
2023-02-24T23:25:52.495Z,6.20
2023-02-24T23:28:42.763Z,6.30
2023-02-24T23:31:32.168Z,6.30
2023-02-24T23:34:21.128Z,6.30
2023-02-24T23:37:12.094Z,6.30
2023-02-24T23:40:01.005Z,6.40
2023-02-24T23:42:49.811Z,6.30
2023-02-24T23:45:40.672Z,6.30
2023-02-24T23:48:29.373Z,6.30
2023-02-24T23:51:18.267Z,6.30
2023-02-24T23:54:07.053Z,6.20
2023-02-24T23:56:57.014Z,6.20
2023-02-24T23:59:45.908Z,6.20
